createdAt,value
2019-03-20T00:00:12.494Z,100748.84
2019-03-20T00:00:51.232Z,100745.59
2019-03-20T00:01:27.339Z,100745.59
2019-03-20T00:02:03.340Z,100748.56
2019-03-20T00:02:39.230Z,100755.32
2019-03-20T00:03:15.214Z,100755.32
2019-03-20T00:03:51.338Z,100749.45
2019-03-20T00:04:27.362Z,100749.45
2019-03-20T00:05:03.380Z,100762.37
2019-03-20T00:05:39.296Z,100768.02
2019-03-20T00:06:15.341Z,100768.83
2019-03-20T00:06:51.401Z,100768.83
2019-03-20T00:07:27.287Z,100769.86
2019-03-20T00:08:03.270Z,100769.86
2019-03-20T00:08:39.179Z,100773.57
2019-03-20T00:09:15.412Z,100773.57
2019-03-20T00:09:51.268Z,100772.72
2019-03-20T00:10:27.596Z,100771.07
2019-03-20T00:11:03.621Z,100771.07
2019-03-20T00:11:39.537Z,100761.65
2019-03-20T00:12:15.484Z,100765.96
2019-03-20T00:12:51.375Z,100765.96
2019-03-20T00:13:27.317Z,100780.14
2019-03-20T00:14:03.199Z,100779.02
2019-03-20T00:14:39.127Z,100781.67
2019-03-20T00:15:15.252Z,100783.78
2019-03-20T00:15:51.166Z,100780.58
2019-03-20T00:16:27.123Z,100780.58
2019-03-20T00:17:04.092Z,100781.08
2019-03-20T00:17:40.078Z,100791.84
2019-03-20T00:18:16.093Z,100796.86
2019-03-20T00:18:51.972Z,100801.67
2019-03-20T00:19:28.051Z,100793.05
2019-03-20T00:20:03.938Z,100795.16
2019-03-20T00:20:39.807Z,100809.11
2019-03-20T00:21:16.080Z,100809.11
2019-03-20T00:21:52.008Z,100808.81
2019-03-20T00:22:27.972Z,100808.02
2019-03-20T00:23:04.027Z,100808.02
2019-03-20T00:23:40.005Z,100816.23
2019-03-20T00:24:15.951Z,100816.23
2019-03-20T00:24:51.995Z,100811.61
2019-03-20T00:25:27.910Z,100823.16
2019-03-20T00:26:03.967Z,100823.16
2019-03-20T00:26:39.827Z,100827.71
2019-03-20T00:27:15.708Z,100822.80
2019-03-20T00:27:51.585Z,100818.53
2019-03-20T00:28:27.462Z,100828.71
2019-03-20T00:29:03.379Z,100828.95
2019-03-20T00:29:39.247Z,100824.15
2019-03-20T00:30:15.306Z,100840.29
2019-03-20T00:30:51.205Z,100847.25
2019-03-20T00:31:27.074Z,100845.34
2019-03-20T00:32:02.945Z,100845.05
2019-03-20T00:32:38.823Z,100836.98
2019-03-20T00:33:14.719Z,100850.91
2019-03-20T00:33:50.696Z,100844.64
2019-03-20T00:34:26.687Z,100845.16
2019-03-20T00:35:02.632Z,100850.83
2019-03-20T00:35:38.566Z,100832.80
2019-03-20T00:36:14.611Z,100843.45
2019-03-20T00:36:50.527Z,100854.17
2019-03-20T00:37:26.399Z,100854.17
2019-03-20T00:38:02.274Z,100855.78
2019-03-20T00:38:38.268Z,100854.13
2019-03-20T00:39:14.132Z,100855.42
2019-03-20T00:39:50.139Z,100861.34
2019-03-20T00:40:26.013Z,100859.12
2019-03-20T00:41:01.951Z,100865.05
2019-03-20T00:41:37.952Z,100868.53
2019-03-20T00:42:13.870Z,100865.80
2019-03-20T00:42:49.779Z,100862.28
2019-03-20T00:43:25.657Z,100863.66
2019-03-20T00:44:01.856Z,100871.16
2019-03-20T00:44:37.701Z,100871.16
2019-03-20T00:45:14.064Z,100872.76
2019-03-20T00:45:49.962Z,100872.45
2019-03-20T00:46:25.858Z,100875.72
2019-03-20T00:47:01.863Z,100877.68
2019-03-20T00:47:37.846Z,100879.28
2019-03-20T00:48:13.840Z,100885.02
2019-03-20T00:48:49.775Z,100883.66
2019-03-20T00:49:25.662Z,100883.43
2019-03-20T00:50:01.529Z,100888.85
2019-03-20T00:50:37.463Z,100889.67
2019-03-20T00:51:13.500Z,100889.18
2019-03-20T00:51:49.398Z,100890.28
2019-03-20T00:52:25.274Z,100892.25
2019-03-20T00:53:01.107Z,100886.28
2019-03-20T00:53:36.986Z,100880.66
2019-03-20T00:54:12.895Z,100889.29
2019-03-20T00:54:48.879Z,100883.88
2019-03-20T00:55:24.970Z,100886.33
2019-03-20T00:56:00.991Z,100885.47
2019-03-20T00:56:36.896Z,100885.72
2019-03-20T00:57:12.860Z,100886.22
2019-03-20T00:57:49.262Z,100884.56
2019-03-20T00:58:25.231Z,100886.41
2019-03-20T00:59:01.107Z,100879.70
2019-03-20T00:59:37.090Z,100888.83
2019-03-20T01:00:15.580Z,100892.03
2019-03-20T01:00:51.543Z,100890.43
2019-03-20T01:01:27.408Z,100890.43
2019-03-20T01:02:03.316Z,100897.76
2019-03-20T01:02:39.231Z,100902.15
2019-03-20T01:03:15.170Z,100902.73
2019-03-20T01:03:51.099Z,100906.22
2019-03-20T01:04:27.007Z,100897.36
2019-03-20T01:05:12.203Z,100911.35
2019-03-20T01:05:40.727Z,100909.75
2019-03-20T01:06:16.622Z,100918.13
2019-03-20T01:06:52.560Z,100913.02
2019-03-20T01:07:28.449Z,100916.77
2019-03-20T01:08:04.359Z,100919.48
2019-03-20T01:08:40.392Z,100918.13
2019-03-20T01:09:16.291Z,100918.69
2019-03-20T01:09:52.338Z,100921.64
2019-03-20T01:10:28.225Z,100923.83
2019-03-20T01:11:04.083Z,100922.97
2019-03-20T01:11:39.999Z,100926.52
2019-03-20T01:12:17.728Z,100932.73
2019-03-20T01:12:53.658Z,100931.63
2019-03-20T01:13:29.669Z,100932.37
2019-03-20T01:14:05.526Z,100932.37
2019-03-20T01:14:41.439Z,100934.23
2019-03-20T01:15:17.814Z,100937.19
2019-03-20T01:15:53.794Z,100934.48
2019-03-20T01:16:29.634Z,100939.05
2019-03-20T01:17:05.538Z,100936.59
2019-03-20T01:17:41.490Z,100936.59
2019-03-20T01:18:17.373Z,100931.97
2019-03-20T01:18:53.203Z,100935.73
2019-03-20T01:19:29.067Z,100927.84
2019-03-20T01:20:04.994Z,100932.16
2019-03-20T01:20:40.868Z,100929.95
2019-03-20T01:21:16.925Z,100931.05
2019-03-20T01:21:52.988Z,100931.80
2019-03-20T01:22:28.894Z,100933.16
2019-03-20T01:23:04.933Z,100937.20
2019-03-20T01:23:40.839Z,100931.47
2019-03-20T01:24:16.765Z,100938.99
2019-03-20T01:24:52.630Z,100938.13
2019-03-20T01:25:28.459Z,100934.56
2019-03-20T01:26:04.353Z,100939.69
2019-03-20T01:26:40.412Z,100939.98
2019-03-20T01:27:16.275Z,100939.94
2019-03-20T01:27:52.281Z,100941.78
2019-03-20T01:28:28.160Z,100943.39
2019-03-20T01:29:04.027Z,100942.28
2019-03-20T01:29:39.974Z,100946.91
2019-03-20T01:30:32.158Z,100947.40
2019-03-20T01:31:08.020Z,100942.47
2019-03-20T01:31:43.912Z,100945.41
2019-03-20T01:32:19.825Z,100958.10
2019-03-20T01:32:55.668Z,100958.66
2019-03-20T01:33:31.593Z,100957.49
2019-03-20T01:34:07.462Z,100959.65
2019-03-20T01:34:43.337Z,100960.39
2019-03-20T01:35:23.814Z,100959.56
2019-03-20T01:35:56.942Z,100960.55
2019-03-20T01:36:32.865Z,100960.74
2019-03-20T01:37:08.722Z,100956.61
2019-03-20T01:37:44.708Z,100954.12
2019-03-20T01:38:20.611Z,100957.02
2019-03-20T01:38:56.413Z,100959.36
2019-03-20T01:39:32.302Z,100961.77
2019-03-20T01:40:08.160Z,100957.09
2019-03-20T01:40:44.095Z,100956.16
2019-03-20T01:41:20.082Z,100956.66
2019-03-20T01:41:55.958Z,100955.20
2019-03-20T01:42:31.781Z,100958.10
2019-03-20T01:43:08.057Z,100960.44
2019-03-20T01:43:43.932Z,100958.53
2019-03-20T01:44:19.803Z,100964.14
2019-03-20T01:44:55.838Z,100957.17
2019-03-20T01:45:31.715Z,100957.30
2019-03-20T01:46:07.715Z,100949.91
2019-03-20T01:46:43.623Z,100955.00
2019-03-20T01:47:19.495Z,100959.01
2019-03-20T01:47:55.394Z,100963.33
2019-03-20T01:48:31.397Z,100954.00
2019-03-20T01:49:07.210Z,100957.95
2019-03-20T01:49:43.197Z,100953.80
2019-03-20T01:50:19.128Z,100954.84
2019-03-20T01:50:55.041Z,100948.52
2019-03-20T01:51:30.934Z,100953.25
2019-03-20T01:52:06.838Z,100950.16
2019-03-20T01:52:42.737Z,100957.92
2019-03-20T01:53:18.601Z,100955.70
2019-03-20T01:53:54.492Z,100960.02
2019-03-20T01:54:30.420Z,100957.05
2019-03-20T01:55:06.415Z,100967.05
2019-03-20T01:55:42.260Z,100971.38
2019-03-20T01:56:18.201Z,100967.05
2019-03-20T01:56:54.096Z,100974.70
2019-03-20T01:57:29.951Z,100974.78
2019-03-20T01:58:05.838Z,100979.59
2019-03-20T01:58:41.731Z,100975.33
2019-03-20T01:59:17.605Z,100971.75
2019-03-20T01:59:53.506Z,100977.67
2019-03-20T02:00:29.384Z,100979.27
2019-03-20T02:01:05.255Z,100981.92
2019-03-20T02:01:41.114Z,100982.72
2019-03-20T02:02:17.088Z,100984.22
2019-03-20T02:02:53.028Z,100985.82
2019-03-20T02:03:28.948Z,100986.69
2019-03-20T02:04:04.926Z,100994.17
2019-03-20T02:04:40.750Z,100993.86
2019-03-20T02:05:16.784Z,100991.94
2019-03-20T02:05:52.748Z,100990.03
2019-03-20T02:06:28.638Z,100992.50
2019-03-20T02:07:04.475Z,100996.33
2019-03-20T02:07:40.350Z,100997.20
2019-03-20T02:08:16.309Z,100997.51
2019-03-20T02:08:52.207Z,101003.25
2019-03-20T02:09:28.072Z,100999.48
2019-03-20T02:10:04.002Z,100999.55
2019-03-20T02:10:40.018Z,101000.67
2019-03-20T02:11:16.058Z,101006.20
2019-03-20T02:11:51.926Z,101003.86
2019-03-20T02:12:27.938Z,101003.36
2019-03-20T02:13:03.990Z,101007.75
2019-03-20T02:13:40.173Z,101002.63
2019-03-20T02:14:16.079Z,101005.47
2019-03-20T02:14:52.263Z,101009.30
2019-03-20T02:15:38.147Z,101009.63
2019-03-20T02:16:06.012Z,101009.39
2019-03-20T02:16:42.107Z,101009.66
2019-03-20T02:17:18.129Z,101010.34
2019-03-20T02:17:55.952Z,101005.16
2019-03-20T02:18:35.335Z,101004.36
2019-03-20T02:19:11.432Z,101006.52
2019-03-20T02:19:47.331Z,101005.41
2019-03-20T02:20:24.628Z,101007.38
2019-03-20T02:21:01.356Z,101012.81
2019-03-20T02:21:40.402Z,101010.09
2019-03-20T02:22:16.489Z,101013.73
2019-03-20T02:22:53.905Z,101018.36
2019-03-20T02:23:29.794Z,101008.73
2019-03-20T02:24:05.857Z,101014.75
2019-03-20T02:24:41.877Z,101014.19
2019-03-20T02:25:17.947Z,101018.08
2019-03-20T02:25:53.826Z,101017.08
2019-03-20T02:26:29.643Z,101017.08
2019-03-20T02:27:05.671Z,101017.33
2019-03-20T02:27:41.579Z,101014.87
2019-03-20T02:28:17.594Z,101020.23
2019-03-20T02:28:53.516Z,101015.86
2019-03-20T02:29:29.373Z,101021.53
2019-03-20T02:30:05.616Z,101012.03
2019-03-20T02:30:41.723Z,101011.20
2019-03-20T02:31:17.663Z,101017.98
2019-03-20T02:31:53.658Z,101011.45
2019-03-20T02:32:29.572Z,101013.55
2019-03-20T02:33:05.566Z,101008.55
2019-03-20T02:33:41.512Z,101003.00
2019-03-20T02:34:17.399Z,101009.08
2019-03-20T02:34:53.441Z,101007.56
2019-03-20T02:35:29.360Z,101006.81
2019-03-20T02:36:05.247Z,101004.67
2019-03-20T02:36:41.125Z,101004.90
2019-03-20T02:37:17.013Z,101002.57
2019-03-20T02:37:55.699Z,101000.66
2019-03-20T02:38:31.584Z,101004.84
2019-03-20T02:39:09.032Z,101000.38
2019-03-20T02:39:44.862Z,100998.42
2019-03-20T02:40:20.795Z,100996.68
2019-03-20T02:40:56.633Z,101000.37
2019-03-20T02:41:32.525Z,100998.23
2019-03-20T02:42:08.457Z,100995.65
2019-03-20T02:42:44.341Z,101000.14
2019-03-20T02:43:20.212Z,101000.82
2019-03-20T02:43:56.384Z,100998.76
2019-03-20T02:44:32.515Z,100992.13
2019-03-20T02:45:10.031Z,100991.85
2019-03-20T02:45:46.233Z,100996.02
2019-03-20T02:46:22.161Z,101002.34
2019-03-20T02:46:58.191Z,100998.94
2019-03-20T02:47:34.169Z,100999.19
2019-03-20T02:48:10.007Z,101001.79
2019-03-20T02:48:45.831Z,100999.34
2019-03-20T02:49:21.737Z,101001.06
2019-03-20T02:49:57.612Z,100999.95
2019-03-20T02:50:33.609Z,100997.22
2019-03-20T02:51:09.573Z,100996.89
2019-03-20T02:51:45.455Z,100995.53
2019-03-20T02:52:21.257Z,100992.41
2019-03-20T02:52:57.173Z,100981.84
2019-03-20T02:53:33.031Z,100984.81
2019-03-20T02:54:09.068Z,100981.86
2019-03-20T02:54:44.943Z,100980.22
2019-03-20T02:55:20.877Z,100981.93
2019-03-20T02:55:56.724Z,100979.23
2019-03-20T02:56:32.622Z,100971.06
2019-03-20T02:57:08.699Z,100976.58
2019-03-20T02:57:44.596Z,100982.37
2019-03-20T02:58:20.480Z,100977.64
2019-03-20T02:58:56.379Z,100978.75
2019-03-20T02:59:32.271Z,100980.73
2019-03-20T03:00:10.307Z,100979.88
2019-03-20T03:00:46.433Z,100982.37
2019-03-20T03:01:22.467Z,100980.28
2019-03-20T03:01:58.511Z,100970.81
2019-03-20T03:02:34.726Z,100980.67
2019-03-20T03:03:10.713Z,100968.47
2019-03-20T03:03:46.661Z,100966.84
2019-03-20T03:04:22.609Z,100966.66
2019-03-20T03:04:58.496Z,100963.24
2019-03-20T03:05:34.583Z,100970.34
2019-03-20T03:06:10.452Z,100961.98
2019-03-20T03:06:46.321Z,100970.00
2019-03-20T03:07:22.203Z,100972.78
2019-03-20T03:07:58.117Z,100969.63
2019-03-20T03:08:34.125Z,100968.30
2019-03-20T03:09:10.771Z,100963.89
2019-03-20T03:09:46.623Z,100964.45
2019-03-20T03:10:22.566Z,100969.25
2019-03-20T03:10:58.427Z,100964.88
2019-03-20T03:11:34.298Z,100966.15
2019-03-20T03:12:10.161Z,100965.36
2019-03-20T03:12:46.022Z,100971.89
2019-03-20T03:13:21.938Z,100963.63
2019-03-20T03:13:57.808Z,100960.98
2019-03-20T03:14:33.878Z,100958.69
2019-03-20T03:15:10.032Z,100960.98
2019-03-20T03:15:45.905Z,100961.70
2019-03-20T03:16:22.094Z,100959.63
2019-03-20T03:16:58.216Z,100956.20
2019-03-20T03:17:34.181Z,100958.42
2019-03-20T03:18:10.119Z,100953.92
2019-03-20T03:18:45.960Z,100956.43
2019-03-20T03:19:21.913Z,100959.91
2019-03-20T03:19:57.882Z,100953.14
2019-03-20T03:20:33.899Z,100956.30
2019-03-20T03:21:09.737Z,100954.41
2019-03-20T03:21:45.629Z,100955.45
2019-03-20T03:22:21.562Z,100957.05
2019-03-20T03:22:57.512Z,100956.34
2019-03-20T03:23:33.536Z,100954.65
2019-03-20T03:24:09.438Z,100959.91
2019-03-20T03:24:45.383Z,100959.09
2019-03-20T03:25:21.232Z,100960.60
2019-03-20T03:25:57.219Z,100960.88
2019-03-20T03:26:33.221Z,100959.19
2019-03-20T03:27:09.121Z,100956.23
2019-03-20T03:27:45.186Z,100961.63
2019-03-20T03:28:21.151Z,100965.17
2019-03-20T03:28:57.050Z,100960.09
2019-03-20T03:29:32.901Z,100960.11
2019-03-20T03:30:09.402Z,100964.44
2019-03-20T03:30:45.390Z,100961.84
2019-03-20T03:31:21.319Z,100974.25
2019-03-20T03:31:57.211Z,100963.85
2019-03-20T03:32:33.243Z,100962.25
2019-03-20T03:33:09.105Z,100966.19
2019-03-20T03:33:45.004Z,100964.59
2019-03-20T03:34:20.859Z,100963.40
2019-03-20T03:34:56.742Z,100965.97
2019-03-20T03:35:32.751Z,100967.89
2019-03-20T03:36:20.638Z,100967.34
2019-03-20T03:36:46.347Z,100963.92
2019-03-20T03:37:22.257Z,100961.13
2019-03-20T03:37:58.244Z,100958.82
2019-03-20T03:38:34.281Z,100965.15
2019-03-20T03:39:10.607Z,100961.47
2019-03-20T03:39:46.506Z,100959.13
2019-03-20T03:40:22.418Z,100959.69
2019-03-20T03:40:58.292Z,100960.73
2019-03-20T03:41:34.213Z,100962.59
2019-03-20T03:42:10.143Z,100960.66
2019-03-20T03:42:46.009Z,100958.36
2019-03-20T03:43:24.273Z,100956.59
2019-03-20T03:43:59.581Z,100953.75
2019-03-20T03:44:35.445Z,100950.84
2019-03-20T03:45:12.642Z,100949.81
2019-03-20T03:45:48.623Z,100947.56
2019-03-20T03:46:24.595Z,100950.81
2019-03-20T03:47:00.428Z,100951.76
2019-03-20T03:47:36.486Z,100942.80
2019-03-20T03:48:12.441Z,100939.23
2019-03-20T03:48:48.350Z,100949.86
2019-03-20T03:49:24.193Z,100939.73
2019-03-20T03:50:00.532Z,100942.73
2019-03-20T03:50:36.530Z,100944.38
2019-03-20T03:51:12.485Z,100943.27
2019-03-20T03:51:48.388Z,100944.92
2019-03-20T03:52:24.613Z,100944.69
2019-03-20T03:53:00.492Z,100941.81
2019-03-20T03:53:36.383Z,100945.34
2019-03-20T03:54:12.277Z,100938.77
2019-03-20T03:54:48.170Z,100943.41
2019-03-20T03:55:24.012Z,100937.12
2019-03-20T03:55:59.878Z,100939.36
2019-03-20T03:56:35.769Z,100931.13
2019-03-20T03:57:11.963Z,100933.05
2019-03-20T03:57:48.218Z,100926.27
2019-03-20T03:58:24.223Z,100932.90
2019-03-20T03:59:00.144Z,100925.34
2019-03-20T03:59:36.104Z,100925.55
2019-03-20T04:00:13.454Z,100927.84
2019-03-20T04:00:49.357Z,100928.51
2019-03-20T04:01:25.214Z,100928.05
2019-03-20T04:02:01.166Z,100926.38
2019-03-20T04:02:37.039Z,100926.48
2019-03-20T04:03:13.050Z,100930.63
2019-03-20T04:03:49.294Z,100923.94
2019-03-20T04:04:25.457Z,100927.27
2019-03-20T04:05:01.478Z,100921.37
2019-03-20T04:05:37.530Z,100925.83
2019-03-20T04:06:13.580Z,100924.86
2019-03-20T04:06:49.503Z,100926.97
2019-03-20T04:07:25.463Z,100926.09
2019-03-20T04:08:01.335Z,100923.59
2019-03-20T04:08:37.268Z,100925.01
2019-03-20T04:09:13.166Z,100919.73
2019-03-20T04:09:49.170Z,100924.27
2019-03-20T04:10:25.046Z,100918.80
2019-03-20T04:11:01.048Z,100922.45
2019-03-20T04:11:36.997Z,100921.81
2019-03-20T04:12:13.104Z,100920.68
2019-03-20T04:12:49.153Z,100921.37
2019-03-20T04:13:25.395Z,100916.14
2019-03-20T04:14:01.513Z,100917.17
2019-03-20T04:14:37.529Z,100917.30
2019-03-20T04:15:14.142Z,100912.05
2019-03-20T04:15:50.310Z,100910.91
2019-03-20T04:16:26.224Z,100913.75
2019-03-20T04:17:02.097Z,100912.28
2019-03-20T04:17:38.036Z,100911.14
2019-03-20T04:18:13.969Z,100910.36
2019-03-20T04:18:49.805Z,100901.60
2019-03-20T04:19:25.652Z,100901.60
2019-03-20T04:20:01.553Z,100906.72
2019-03-20T04:20:37.560Z,100904.91
2019-03-20T04:21:13.375Z,100908.71
2019-03-20T04:21:49.264Z,100912.85
2019-03-20T04:22:25.292Z,100908.08
2019-03-20T04:23:01.252Z,100907.97
2019-03-20T04:23:37.140Z,100907.84
2019-03-20T04:24:13.016Z,100904.09
2019-03-20T04:24:48.903Z,100907.17
2019-03-20T04:25:24.741Z,100904.17
2019-03-20T04:26:00.626Z,100902.67
2019-03-20T04:26:36.508Z,100901.38
2019-03-20T04:27:12.492Z,100900.80
2019-03-20T04:27:48.450Z,100904.31
2019-03-20T04:28:24.323Z,100899.17
2019-03-20T04:29:00.235Z,100897.42
2019-03-20T04:29:36.146Z,100894.34
2019-03-20T04:30:12.589Z,100893.03
2019-03-20T04:30:48.625Z,100894.61
2019-03-20T04:31:24.498Z,100888.19
2019-03-20T04:32:00.350Z,100886.11
2019-03-20T04:32:36.256Z,100886.31
2019-03-20T04:33:12.117Z,100888.11
2019-03-20T04:33:47.986Z,100883.53
2019-03-20T04:34:23.895Z,100883.86
2019-03-20T04:34:59.851Z,100879.64
2019-03-20T04:35:35.688Z,100880.54
2019-03-20T04:36:11.592Z,100882.56
2019-03-20T04:36:48.344Z,100878.91
2019-03-20T04:37:24.296Z,100881.70
2019-03-20T04:38:00.195Z,100880.22
2019-03-20T04:38:36.037Z,100877.25
2019-03-20T04:39:12.030Z,100881.18
2019-03-20T04:39:47.919Z,100878.88
2019-03-20T04:40:24.054Z,100877.85
2019-03-20T04:40:59.925Z,100874.42
2019-03-20T04:41:35.970Z,100873.06
2019-03-20T04:42:11.892Z,100873.73
2019-03-20T04:42:47.736Z,100861.42
2019-03-20T04:43:23.631Z,100868.63
2019-03-20T04:43:59.579Z,100863.38
2019-03-20T04:44:35.725Z,100864.60
2019-03-20T04:45:12.799Z,100860.80
2019-03-20T04:45:48.767Z,100863.59
2019-03-20T04:46:24.663Z,100865.21
2019-03-20T04:47:00.454Z,100857.70
2019-03-20T04:47:36.324Z,100856.99
2019-03-20T04:48:12.272Z,100866.72
2019-03-20T04:48:48.242Z,100863.62
2019-03-20T04:49:24.224Z,100861.84
2019-03-20T04:50:00.093Z,100864.42
2019-03-20T04:50:35.967Z,100870.62
2019-03-20T04:51:11.913Z,100866.86
2019-03-20T04:51:47.786Z,100872.81
2019-03-20T04:52:23.744Z,100871.25
2019-03-20T04:52:59.674Z,100867.11
2019-03-20T04:53:35.553Z,100868.41
2019-03-20T04:54:11.459Z,100871.16
2019-03-20T04:54:47.260Z,100872.02
2019-03-20T04:55:23.126Z,100869.47
2019-03-20T04:55:59.036Z,100870.05
2019-03-20T04:56:34.910Z,100875.42
2019-03-20T04:57:10.899Z,100872.44
2019-03-20T04:57:46.751Z,100870.98
2019-03-20T04:58:22.738Z,100869.38
2019-03-20T04:58:58.619Z,100875.23
2019-03-20T04:59:34.529Z,100871.31
2019-03-20T05:00:12.736Z,100877.40
2019-03-20T05:00:48.623Z,100882.50
2019-03-20T05:01:24.520Z,100880.98
2019-03-20T05:02:00.540Z,100881.22
2019-03-20T05:02:36.429Z,100882.98
2019-03-20T05:03:12.261Z,100886.55
2019-03-20T05:03:48.099Z,100887.15
2019-03-20T05:04:24.134Z,100889.17
2019-03-20T05:05:00.052Z,100888.68
2019-03-20T05:05:35.921Z,100891.08
2019-03-20T05:06:11.811Z,100889.39
2019-03-20T05:06:57.897Z,100889.05
2019-03-20T05:07:25.347Z,100890.13
2019-03-20T05:08:01.203Z,100888.56
2019-03-20T05:08:37.079Z,100886.05
2019-03-20T05:09:12.933Z,100887.09
2019-03-20T05:09:48.859Z,100888.19
2019-03-20T05:10:24.742Z,100884.64
2019-03-20T05:11:00.603Z,100886.38
2019-03-20T05:11:36.548Z,100887.74
2019-03-20T05:12:12.432Z,100886.05
2019-03-20T05:12:48.404Z,100886.62
2019-03-20T05:13:24.251Z,100886.01
2019-03-20T05:14:00.120Z,100878.63
2019-03-20T05:14:36.065Z,100880.58
2019-03-20T05:15:12.218Z,100879.19
2019-03-20T05:15:48.079Z,100871.97
2019-03-20T05:16:23.971Z,100871.97
2019-03-20T05:16:59.862Z,100867.56
2019-03-20T05:17:35.742Z,100866.34
2019-03-20T05:18:11.616Z,100869.05
2019-03-20T05:18:47.490Z,100857.27
2019-03-20T05:19:23.382Z,100857.27
2019-03-20T05:19:59.279Z,100864.60
2019-03-20T05:20:35.186Z,100864.60
2019-03-20T05:21:11.052Z,100866.03
2019-03-20T05:21:47.079Z,100866.61
2019-03-20T05:22:22.992Z,100864.20
2019-03-20T05:22:58.862Z,100862.93
2019-03-20T05:23:34.745Z,100858.11
2019-03-20T05:24:10.704Z,100855.99
2019-03-20T05:24:46.676Z,100855.48
2019-03-20T05:25:22.647Z,100852.52
2019-03-20T05:25:58.530Z,100853.87
2019-03-20T05:26:34.394Z,100849.02
2019-03-20T05:27:10.272Z,100842.81
2019-03-20T05:27:46.100Z,100837.13
2019-03-20T05:28:22.099Z,100838.17
2019-03-20T05:28:58.001Z,100832.01
2019-03-20T05:29:33.884Z,100833.69
2019-03-20T05:30:10.284Z,100827.45
2019-03-20T05:30:46.158Z,100824.49
2019-03-20T05:31:22.031Z,100823.47
2019-03-20T05:31:58.024Z,100818.55
2019-03-20T05:32:33.913Z,100817.73
2019-03-20T05:33:09.770Z,100812.81
2019-03-20T05:33:45.642Z,100810.07
2019-03-20T05:34:21.666Z,100804.38
2019-03-20T05:34:57.534Z,100802.44
2019-03-20T05:35:33.400Z,100803.50
2019-03-20T05:36:09.238Z,100807.52
2019-03-20T05:36:45.128Z,100800.47
2019-03-20T05:37:20.960Z,100802.33
2019-03-20T05:37:56.820Z,100795.83
2019-03-20T05:38:32.658Z,100797.17
2019-03-20T05:39:09.894Z,100791.47
2019-03-20T05:39:45.815Z,100794.42
2019-03-20T05:40:21.701Z,100785.44
2019-03-20T05:40:57.752Z,100785.44
2019-03-20T05:41:33.623Z,100786.70
2019-03-20T05:42:09.497Z,100779.60
2019-03-20T05:42:45.453Z,100779.60
2019-03-20T05:43:21.287Z,100779.30
2019-03-20T05:43:57.155Z,100775.50
2019-03-20T05:44:33.005Z,100771.61
2019-03-20T05:45:09.936Z,100770.72
2019-03-20T05:45:45.856Z,100762.06
2019-03-20T05:46:21.717Z,100760.76
2019-03-20T05:46:57.608Z,100763.13
2019-03-20T05:47:33.501Z,100757.71
2019-03-20T05:48:09.353Z,100762.13
2019-03-20T05:48:45.234Z,100762.13
2019-03-20T05:49:21.126Z,100752.06
2019-03-20T05:49:57.013Z,100752.06
2019-03-20T05:50:32.877Z,100758.19
2019-03-20T05:51:08.878Z,100754.54
2019-03-20T05:51:44.753Z,100754.54
2019-03-20T05:52:20.637Z,100751.23
2019-03-20T05:52:56.493Z,100747.67
2019-03-20T05:53:32.430Z,100749.76
2019-03-20T05:54:08.411Z,100749.76
2019-03-20T05:54:44.284Z,100735.67
2019-03-20T05:55:20.175Z,100743.34
2019-03-20T05:55:56.086Z,100743.34
2019-03-20T05:56:32.079Z,100737.67
2019-03-20T05:57:08.088Z,100738.56
2019-03-20T05:57:43.953Z,100734.18
2019-03-20T05:58:19.825Z,100734.18
2019-03-20T05:58:55.831Z,100723.68
2019-03-20T05:59:31.681Z,100740.53
2019-03-20T06:00:11.371Z,100738.83
2019-03-20T06:00:47.217Z,100734.45
2019-03-20T06:01:23.207Z,100730.23
2019-03-20T06:01:59.068Z,100723.22
2019-03-20T06:02:34.955Z,100723.22
2019-03-20T06:03:10.819Z,100729.52
2019-03-20T06:03:46.866Z,100729.52
2019-03-20T06:04:22.811Z,100726.19
2019-03-20T06:04:58.875Z,100719.17
2019-03-20T06:05:34.760Z,100719.73
2019-03-20T06:06:10.582Z,100719.91
2019-03-20T06:06:46.444Z,100720.66
2019-03-20T06:07:22.308Z,100705.82
2019-03-20T06:07:58.178Z,100715.16
2019-03-20T06:08:34.143Z,100715.16
2019-03-20T06:09:10.343Z,100714.54
2019-03-20T06:09:46.165Z,100709.86
2019-03-20T06:10:22.058Z,100710.84
2019-03-20T06:10:57.931Z,100715.09
2019-03-20T06:11:33.788Z,100718.79
2019-03-20T06:12:09.623Z,100711.41
2019-03-20T06:12:45.515Z,100708.94
2019-03-20T06:13:21.329Z,100712.20
2019-03-20T06:13:57.321Z,100708.66
2019-03-20T06:14:33.342Z,100710.54
2019-03-20T06:15:09.657Z,100705.37
2019-03-20T06:15:45.495Z,100705.86
2019-03-20T06:16:21.327Z,100710.66
2019-03-20T06:16:57.302Z,100706.53
2019-03-20T06:17:33.206Z,100703.27
2019-03-20T06:18:09.106Z,100701.05
2019-03-20T06:18:44.992Z,100697.97
2019-03-20T06:19:20.902Z,100694.94
2019-03-20T06:19:56.794Z,100693.80
2019-03-20T06:20:33.823Z,100691.27
2019-03-20T06:21:09.964Z,100692.00
2019-03-20T06:21:45.834Z,100693.29
2019-03-20T06:22:22.654Z,100688.05
2019-03-20T06:22:58.620Z,100689.58
2019-03-20T06:23:34.517Z,100687.35
2019-03-20T06:24:10.451Z,100683.18
2019-03-20T06:24:46.409Z,100682.00
2019-03-20T06:25:22.375Z,100684.64
2019-03-20T06:25:58.243Z,100680.51
2019-03-20T06:26:34.102Z,100676.95
2019-03-20T06:27:09.959Z,100678.73
2019-03-20T06:27:45.867Z,100675.63
2019-03-20T06:28:21.708Z,100672.92
2019-03-20T06:28:57.664Z,100669.85
2019-03-20T06:29:33.533Z,100668.98
2019-03-20T06:30:11.097Z,100664.28
2019-03-20T06:30:46.988Z,100657.67
2019-03-20T06:31:22.925Z,100668.94
2019-03-20T06:31:58.811Z,100668.06
2019-03-20T06:32:34.673Z,100661.77
2019-03-20T06:33:10.651Z,100662.52
2019-03-20T06:33:46.602Z,100663.80
2019-03-20T06:34:22.444Z,100661.81
2019-03-20T06:34:58.345Z,100659.02
2019-03-20T06:35:34.286Z,100659.75
2019-03-20T06:36:10.134Z,100657.52
2019-03-20T06:36:46.093Z,100659.36
2019-03-20T06:37:31.982Z,100666.31
2019-03-20T06:37:59.764Z,100662.19
2019-03-20T06:38:35.623Z,100658.63
2019-03-20T06:39:11.489Z,100658.00
2019-03-20T06:39:47.400Z,100661.19
2019-03-20T06:40:23.269Z,100661.36
2019-03-20T06:40:59.141Z,100656.97
2019-03-20T06:41:35.037Z,100660.41
2019-03-20T06:42:10.947Z,100657.92
2019-03-20T06:42:46.899Z,100655.45
2019-03-20T06:43:22.749Z,100652.50
2019-03-20T06:43:58.713Z,100651.45
2019-03-20T06:44:34.545Z,100654.97
2019-03-20T06:45:11.242Z,100651.70
2019-03-20T06:45:47.236Z,100644.59
2019-03-20T06:46:23.099Z,100648.59
2019-03-20T06:46:59.090Z,100644.67
2019-03-20T06:47:34.982Z,100642.23
2019-03-20T06:48:10.844Z,100639.83
2019-03-20T06:48:46.729Z,100639.03
2019-03-20T06:49:22.644Z,100648.61
2019-03-20T06:49:58.504Z,100641.79
2019-03-20T06:50:34.367Z,100638.73
2019-03-20T06:51:10.428Z,100641.14